createdAt,value
2018-02-15T00:00:02.705Z,66.67
2018-02-15T00:01:02.685Z,65.91
2018-02-15T00:02:02.718Z,66.00
2018-02-15T00:03:02.695Z,66.38
2018-02-15T00:04:02.687Z,66.76
2018-02-15T00:05:23.685Z,65.72
2018-02-15T00:06:02.682Z,66.09
2018-02-15T00:07:02.733Z,66.09
2018-02-15T00:08:02.903Z,65.81
2018-02-15T00:09:02.673Z,65.44
2018-02-15T00:10:02.675Z,65.81
2018-02-15T00:11:23.677Z,65.91
2018-02-15T00:12:02.661Z,66.00
2018-02-15T00:13:02.663Z,66.00
2018-02-15T00:14:02.654Z,65.72
2018-02-15T00:15:02.656Z,65.15
2018-02-15T00:16:02.646Z,65.44
2018-02-15T00:17:23.757Z,65.81
2018-02-15T00:18:02.643Z,65.91
2018-02-15T00:19:02.647Z,65.63
2018-02-15T00:20:02.655Z,66.00
2018-02-15T00:21:02.666Z,66.19
2018-02-15T00:22:02.633Z,65.91
2018-02-15T00:23:23.673Z,66.00
2018-02-15T00:24:02.631Z,66.00
2018-02-15T00:25:02.626Z,66.00
2018-02-15T00:26:02.625Z,66.19
2018-02-15T00:27:02.619Z,65.91
2018-02-15T00:28:02.620Z,66.09
2018-02-15T00:29:23.650Z,65.91
2018-02-15T00:30:02.603Z,66.09
2018-02-15T00:31:02.625Z,66.19
2018-02-15T00:32:02.610Z,65.91
2018-02-15T00:33:02.597Z,66.09
2018-02-15T00:34:02.628Z,65.72
2018-02-15T00:35:23.664Z,65.91
2018-02-15T00:36:02.590Z,65.53
2018-02-15T00:37:02.591Z,65.91
2018-02-15T00:38:02.586Z,65.91
2018-02-15T00:39:02.694Z,66.47
2018-02-15T00:40:02.589Z,66.76
2018-02-15T00:41:23.582Z,66.19
2018-02-15T00:42:02.600Z,65.81
2018-02-15T00:43:02.578Z,65.72
2018-02-15T00:44:02.634Z,66.19
2018-02-15T00:45:02.569Z,66.09
2018-02-15T00:46:02.567Z,65.81
2018-02-15T00:47:23.572Z,65.91
2018-02-15T00:48:02.563Z,65.91
2018-02-15T00:49:02.558Z,65.53
2018-02-15T00:50:02.586Z,66.00
2018-02-15T00:51:02.552Z,66.19
2018-02-15T00:52:02.687Z,66.09
2018-02-15T00:53:23.552Z,65.75
2018-02-15T00:54:02.546Z,65.28
2018-02-15T00:55:02.559Z,65.15
2018-02-15T00:56:02.539Z,65.44
2018-02-15T00:57:02.528Z,66.09
2018-02-15T00:58:02.530Z,66.00
2018-02-15T00:59:23.538Z,65.72
2018-02-15T01:00:02.585Z,66.13
2018-02-15T01:01:02.525Z,65.19
2018-02-15T01:02:02.529Z,65.06
2018-02-15T01:03:02.537Z,65.56
2018-02-15T01:04:02.518Z,65.19
2018-02-15T01:05:23.550Z,64.90
2018-02-15T01:06:02.511Z,64.81
2018-02-15T01:07:02.506Z,65.09
2018-02-15T01:08:02.548Z,65.09
2018-02-15T01:09:02.581Z,64.52
2018-02-15T01:10:02.502Z,65.09
2018-02-15T01:11:23.503Z,64.90
2018-02-15T01:12:02.495Z,64.81
2018-02-15T01:13:02.487Z,64.71
2018-02-15T01:14:02.491Z,64.81
2018-02-15T01:15:02.528Z,63.95
2018-02-15T01:16:02.492Z,64.33
2018-02-15T01:17:23.490Z,64.81
2018-02-15T01:18:02.703Z,64.90
2018-02-15T01:19:02.480Z,64.14
2018-02-15T01:20:02.466Z,64.04
2018-02-15T01:21:02.468Z,63.85
2018-02-15T01:22:02.463Z,63.01
2018-02-15T01:23:23.478Z,62.91
2018-02-15T01:24:02.452Z,63.29
2018-02-15T01:25:02.508Z,63.39
2018-02-15T01:26:02.540Z,62.72
2018-02-15T01:27:02.457Z,62.72
2018-02-15T01:28:02.458Z,62.62
2018-02-15T01:29:23.447Z,63.29
2018-02-15T01:30:02.483Z,62.62
2018-02-15T01:31:02.436Z,62.62
2018-02-15T01:32:02.507Z,62.53
2018-02-15T01:33:02.432Z,62.72
2018-02-15T01:34:02.439Z,62.24
2018-02-15T01:35:23.439Z,62.34
2018-02-15T01:36:02.422Z,62.15
2018-02-15T01:37:02.444Z,61.96
2018-02-15T01:38:02.443Z,62.53
2018-02-15T01:39:02.446Z,62.34
2018-02-15T01:40:02.413Z,62.15
2018-02-15T01:41:23.425Z,61.96
2018-02-15T01:42:02.411Z,61.77
2018-02-15T01:43:02.411Z,61.77
2018-02-15T01:44:02.403Z,61.77
2018-02-15T01:45:02.407Z,61.77
2018-02-15T01:46:02.407Z,61.87
2018-02-15T01:47:23.413Z,61.87
2018-02-15T01:48:02.450Z,61.40
2018-02-15T01:49:02.394Z,60.54
2018-02-15T01:50:02.395Z,60.44
2018-02-15T01:51:02.384Z,60.64
2018-02-15T01:52:02.396Z,60.64
2018-02-15T01:53:23.420Z,60.16
2018-02-15T01:54:02.375Z,60.44
2018-02-15T01:55:02.371Z,60.44
2018-02-15T01:56:02.380Z,59.78
2018-02-15T01:57:02.368Z,59.69
2018-02-15T01:58:02.371Z,59.69
2018-02-15T01:59:23.384Z,59.50
2018-02-15T02:00:02.360Z,59.50
2018-02-15T02:01:02.356Z,59.69
2018-02-15T02:02:02.355Z,59.50
2018-02-15T02:03:02.350Z,59.50
2018-02-15T02:04:02.350Z,59.78
2018-02-15T02:05:23.358Z,58.84
2018-02-15T02:06:02.351Z,59.12
2018-02-15T02:07:02.347Z,59.03
2018-02-15T02:08:02.408Z,58.74
2018-02-15T02:09:02.335Z,59.22
2018-02-15T02:10:02.332Z,59.12
2018-02-15T02:11:23.347Z,59.12
2018-02-15T02:12:02.322Z,58.84
2018-02-15T02:13:02.347Z,58.65
2018-02-15T02:14:02.333Z,59.03
2018-02-15T02:15:02.329Z,58.93
2018-02-15T02:16:02.319Z,58.74
2018-02-15T02:17:23.342Z,58.65
2018-02-15T02:18:02.316Z,58.65
2018-02-15T02:19:02.429Z,58.93
2018-02-15T02:20:02.314Z,58.84
2018-02-15T02:21:02.305Z,58.74
2018-02-15T02:22:02.302Z,58.74
2018-02-15T02:23:23.332Z,58.55
2018-02-15T02:24:02.305Z,58.93
2018-02-15T02:25:02.327Z,59.22
2018-02-15T02:26:02.355Z,58.65
2018-02-15T02:27:02.300Z,58.45
2018-02-15T02:28:02.325Z,59.22
2018-02-15T02:29:23.294Z,59.12
2018-02-15T02:30:02.284Z,58.93
2018-02-15T02:31:02.286Z,59.03
2018-02-15T02:32:02.277Z,58.07
2018-02-15T02:33:02.277Z,58.36
2018-02-15T02:34:02.276Z,58.84
2018-02-15T02:35:23.291Z,58.74
2018-02-15T02:36:02.303Z,58.93
2018-02-15T02:37:02.274Z,58.74
2018-02-15T02:38:02.257Z,58.74
2018-02-15T02:39:02.362Z,59.03
2018-02-15T02:40:02.255Z,59.03
2018-02-15T02:41:23.270Z,58.07
2018-02-15T02:42:02.255Z,58.07
2018-02-15T02:43:02.254Z,57.98
2018-02-15T02:44:02.249Z,58.17
2018-02-15T02:45:02.263Z,58.84
2018-02-15T02:46:02.251Z,58.93
2018-02-15T02:47:23.254Z,58.55
2018-02-15T02:48:02.251Z,58.65
2018-02-15T02:49:02.231Z,58.26
2018-02-15T02:50:02.226Z,58.07
2018-02-15T02:51:02.247Z,58.36
2018-02-15T02:52:02.286Z,58.36
2018-02-15T02:53:23.242Z,58.26
2018-02-15T02:54:02.222Z,57.98
2018-02-15T02:55:02.238Z,58.07
2018-02-15T02:56:02.222Z,58.07
2018-02-15T02:57:02.215Z,58.36
2018-02-15T02:58:02.219Z,59.03
2018-02-15T02:59:23.222Z,58.26
2018-02-15T03:00:02.228Z,58.93
2018-02-15T03:01:02.241Z,58.26
2018-02-15T03:02:02.208Z,58.07
2018-02-15T03:03:02.196Z,58.26
2018-02-15T03:04:02.202Z,58.07
2018-02-15T03:05:23.206Z,58.26
2018-02-15T03:06:02.193Z,58.36
2018-02-15T03:07:02.197Z,57.89
2018-02-15T03:08:02.201Z,57.70
2018-02-15T03:09:02.188Z,57.79
2018-02-15T03:10:02.997Z,58.26
2018-02-15T03:11:23.200Z,58.26
2018-02-15T03:12:02.187Z,58.07
2018-02-15T03:13:02.178Z,58.07
2018-02-15T03:14:02.195Z,57.89
2018-02-15T03:15:02.176Z,58.36
2018-02-15T03:16:02.244Z,58.26
2018-02-15T03:17:23.174Z,57.89
2018-02-15T03:18:02.159Z,57.98
2018-02-15T03:19:02.226Z,58.07
2018-02-15T03:20:02.252Z,57.98
2018-02-15T03:21:02.158Z,58.26
2018-02-15T03:22:02.171Z,57.89
2018-02-15T03:23:23.159Z,57.89
2018-02-15T03:24:02.151Z,58.07
2018-02-15T03:25:02.152Z,58.17
2018-02-15T03:26:02.148Z,58.07
2018-02-15T03:27:02.137Z,58.07
2018-02-15T03:28:02.143Z,57.70
2018-02-15T03:29:23.142Z,57.98
2018-02-15T03:30:02.138Z,57.89
2018-02-15T03:31:02.134Z,58.07
2018-02-15T03:32:02.160Z,57.98
2018-02-15T03:33:02.133Z,58.17
2018-02-15T03:34:02.131Z,57.79
2018-02-15T03:35:23.124Z,57.70
2018-02-15T03:36:02.311Z,58.26
2018-02-15T03:37:02.959Z,58.07
2018-02-15T03:38:02.112Z,57.70
2018-02-15T03:39:02.125Z,58.07
2018-02-15T03:40:02.998Z,57.51
2018-02-15T03:41:23.110Z,57.79
2018-02-15T03:42:02.128Z,57.51
2018-02-15T03:43:02.110Z,58.26
2018-02-15T03:44:02.098Z,57.51
2018-02-15T03:45:02.093Z,57.98
2018-02-15T03:46:02.105Z,57.51
2018-02-15T03:47:23.097Z,57.23
2018-02-15T03:48:02.101Z,57.60
2018-02-15T03:49:02.087Z,57.51
2018-02-15T03:50:02.088Z,57.70
2018-02-15T03:51:02.084Z,57.60
2018-02-15T03:52:02.097Z,56.75
2018-02-15T03:53:23.084Z,56.75
2018-02-15T03:54:02.077Z,56.37
2018-02-15T03:55:02.079Z,56.37
2018-02-15T03:56:02.076Z,56.56
2018-02-15T03:57:02.096Z,56.56
2018-02-15T03:58:02.069Z,56.75
2018-02-15T03:59:23.071Z,56.56
2018-02-15T04:00:02.072Z,56.75
2018-02-15T04:01:02.054Z,56.85
2018-02-15T04:02:02.059Z,56.46
2018-02-15T04:03:02.053Z,56.09
2018-02-15T04:04:02.052Z,56.56
2018-02-15T04:05:23.066Z,56.46
2018-02-15T04:06:02.044Z,56.85
2018-02-15T04:07:02.047Z,56.56
2018-02-15T04:08:02.039Z,57.23
2018-02-15T04:09:02.040Z,56.75
2018-02-15T04:10:03.009Z,56.75
2018-02-15T04:11:23.043Z,56.09
2018-02-15T04:12:02.034Z,56.56
2018-02-15T04:13:02.136Z,56.56
2018-02-15T04:14:02.024Z,56.66
2018-02-15T04:15:02.018Z,56.46
2018-02-15T04:16:02.034Z,56.56
2018-02-15T04:17:23.045Z,56.46
2018-02-15T04:18:02.029Z,56.46
2018-02-15T04:19:02.042Z,56.27
2018-02-15T04:20:02.018Z,55.80
2018-02-15T04:21:02.104Z,55.43
2018-02-15T04:22:02.003Z,55.52
2018-02-15T04:23:23.008Z,55.71
2018-02-15T04:24:02.006Z,55.90
2018-02-15T04:25:01.997Z,55.43
2018-02-15T04:26:02.000Z,55.43
2018-02-15T04:27:02.000Z,55.14
2018-02-15T04:28:02.000Z,55.62
2018-02-15T04:29:22.995Z,55.33
2018-02-15T04:30:01.988Z,55.14
2018-02-15T04:31:02.024Z,55.24
2018-02-15T04:32:01.983Z,55.24
2018-02-15T04:33:01.975Z,55.43
2018-02-15T04:34:01.986Z,55.14
2018-02-15T04:35:23.038Z,54.95
2018-02-15T04:36:01.972Z,55.24
2018-02-15T04:37:02.013Z,55.14
2018-02-15T04:38:01.977Z,54.86
2018-02-15T04:39:02.011Z,55.43
2018-02-15T04:40:01.976Z,55.52
2018-02-15T04:41:22.973Z,55.24
2018-02-15T04:42:01.965Z,54.19
2018-02-15T04:43:01.961Z,55.33
2018-02-15T04:44:01.963Z,55.24
2018-02-15T04:45:01.962Z,55.90
2018-02-15T04:46:01.961Z,57.04
2018-02-15T04:47:22.959Z,57.32
2018-02-15T04:48:01.950Z,62.72
2018-02-15T04:49:01.956Z,67.74
2018-02-15T04:50:01.943Z,71.25
2018-02-15T04:51:01.943Z,73.80
2018-02-15T04:52:01.944Z,75.04
2018-02-15T04:53:22.943Z,73.43
2018-02-15T04:54:02.520Z,73.24
2018-02-15T04:55:01.924Z,75.42
2018-02-15T04:56:01.930Z,77.12
2018-02-15T04:57:01.935Z,77.65
2018-02-15T04:58:01.925Z,78.98
2018-02-15T04:59:22.930Z,80.21
2018-02-15T05:00:01.925Z,82.29
2018-02-15T05:01:01.951Z,83.43
2018-02-15T05:02:01.915Z,84.47
2018-02-15T05:03:01.919Z,85.13
2018-02-15T05:04:01.971Z,86.74
2018-02-15T05:05:22.925Z,88.17
2018-02-15T05:06:01.906Z,89.49
2018-02-15T05:07:01.903Z,90.34
2018-02-15T05:08:01.898Z,90.96
2018-02-15T05:09:01.903Z,91.72
2018-02-15T05:10:01.923Z,92.66
2018-02-15T05:11:22.901Z,93.32
2018-02-15T05:12:01.894Z,94.18
2018-02-15T05:13:01.891Z,94.65
2018-02-15T05:14:01.878Z,94.84
2018-02-15T05:15:01.880Z,96.16
2018-02-15T05:16:01.889Z,96.54
2018-02-15T05:17:22.890Z,97.20
2018-02-15T05:18:01.881Z,98.06
2018-02-15T05:19:01.863Z,98.15
2018-02-15T05:20:01.870Z,97.58
2018-02-15T05:21:01.858Z,98.53
2018-02-15T05:22:01.947Z,98.82
2018-02-15T05:23:22.884Z,98.53
2018-02-15T05:24:01.861Z,98.53
2018-02-15T05:25:01.850Z,97.87
2018-02-15T05:26:01.870Z,98.72
2018-02-15T05:27:01.837Z,99.01
2018-02-15T05:28:01.854Z,99.19
2018-02-15T05:29:22.838Z,99.10
2018-02-15T05:30:01.836Z,99.19
2018-02-15T05:31:01.843Z,99.95
2018-02-15T05:32:01.846Z,99.95
2018-02-15T05:33:01.830Z,99.99
2018-02-15T05:34:01.823Z,99.99
2018-02-15T05:35:22.826Z,99.99
2018-02-15T05:36:01.903Z,99.99
2018-02-15T05:37:01.822Z,99.99
2018-02-15T05:38:01.815Z,99.99
2018-02-15T05:39:01.903Z,99.99
2018-02-15T05:40:01.811Z,99.99
2018-02-15T05:41:22.823Z,99.99
2018-02-15T05:42:01.882Z,99.99
2018-02-15T05:43:01.804Z,99.99
2018-02-15T05:44:01.828Z,99.99
2018-02-15T05:45:01.927Z,99.99
2018-02-15T05:46:01.801Z,99.99
2018-02-15T05:47:22.798Z,99.99
2018-02-15T05:48:01.794Z,99.99
2018-02-15T05:49:01.786Z,99.99
2018-02-15T05:50:01.799Z,99.99
2018-02-15T05:51:01.826Z,99.99
2018-02-15T05:52:01.806Z,99.99
2018-02-15T05:53:22.789Z,99.99
2018-02-15T05:54:01.861Z,99.99
2018-02-15T05:55:01.774Z,99.99
2018-02-15T05:56:01.761Z,99.99
2018-02-15T05:57:01.804Z,99.99
2018-02-15T05:58:01.799Z,99.99
2018-02-15T05:59:22.762Z,99.99
2018-02-15T06:00:01.785Z,99.99
2018-02-15T06:01:01.755Z,99.99
2018-02-15T06:02:01.740Z,99.99
2018-02-15T06:03:01.753Z,99.99
2018-02-15T06:04:01.782Z,99.99
2018-02-15T06:05:22.748Z,99.99
2018-02-15T06:06:01.734Z,99.99
2018-02-15T06:07:01.729Z,99.99
2018-02-15T06:08:01.761Z,99.99
2018-02-15T06:09:01.732Z,99.99
2018-02-15T06:10:01.744Z,99.99
2018-02-15T06:11:22.804Z,99.99
2018-02-15T06:12:01.726Z,99.99
2018-02-15T06:13:01.760Z,99.99
2018-02-15T06:14:01.706Z,99.99
2018-02-15T06:15:01.710Z,99.99
2018-02-15T06:16:01.725Z,99.99
2018-02-15T06:17:22.710Z,99.99
2018-02-15T06:18:01.741Z,99.99
2018-02-15T06:19:01.739Z,99.99
2018-02-15T06:20:02.539Z,99.99
2018-02-15T06:21:01.810Z,99.99
2018-02-15T06:22:01.681Z,99.99
2018-02-15T06:23:22.865Z,99.99
2018-02-15T06:24:01.702Z,99.99
2018-02-15T06:25:01.867Z,99.99
2018-02-15T06:26:01.680Z,99.99
2018-02-15T06:27:01.683Z,99.99
2018-02-15T06:28:01.662Z,99.99
2018-02-15T06:29:22.699Z,99.99
2018-02-15T06:30:01.667Z,99.99
2018-02-15T06:31:01.658Z,99.99
2018-02-15T06:32:01.645Z,99.99
2018-02-15T06:33:01.831Z,99.99
2018-02-15T06:34:01.657Z,99.99
2018-02-15T06:35:22.676Z,99.99
2018-02-15T06:36:01.639Z,99.99
2018-02-15T06:37:01.647Z,99.99
2018-02-15T06:38:01.721Z,99.99
2018-02-15T06:39:01.632Z,99.99
2018-02-15T06:40:01.804Z,99.99
2018-02-15T06:41:22.674Z,99.99
2018-02-15T06:42:01.644Z,99.99
2018-02-15T06:43:01.984Z,99.99
2018-02-15T06:44:01.632Z,99.99
2018-02-15T06:45:01.607Z,99.99
2018-02-15T06:46:01.615Z,99.99
2018-02-15T06:47:22.624Z,99.99
2018-02-15T06:48:01.622Z,99.99
2018-02-15T06:49:01.608Z,99.99
2018-02-15T06:50:01.600Z,99.99
2018-02-15T06:51:01.606Z,99.99
2018-02-15T06:52:01.605Z,99.99
2018-02-15T06:53:22.587Z,99.99
2018-02-15T06:54:01.739Z,99.99
2018-02-15T06:55:01.588Z,99.99
2018-02-15T06:56:01.709Z,99.99
2018-02-15T06:57:01.594Z,99.99
2018-02-15T06:58:01.571Z,99.99
2018-02-15T06:59:22.687Z,99.99
2018-02-15T07:00:01.575Z,99.99
2018-02-15T07:01:01.595Z,99.99
2018-02-15T07:02:01.579Z,99.99
2018-02-15T07:03:01.563Z,99.99
2018-02-15T07:04:01.577Z,99.99
2018-02-15T07:05:22.573Z,99.99
2018-02-15T07:06:01.656Z,99.99
2018-02-15T07:07:01.549Z,99.99
2018-02-15T07:08:01.613Z,99.99
2018-02-15T07:09:01.543Z,99.99
2018-02-15T07:10:01.549Z,99.99
2018-02-15T07:11:22.561Z,99.99
2018-02-15T07:12:01.591Z,99.99
2018-02-15T07:13:01.547Z,99.99
2018-02-15T07:14:01.612Z,99.99
2018-02-15T07:15:01.519Z,99.99
2018-02-15T07:16:01.548Z,99.99
2018-02-15T07:17:22.527Z,99.99
2018-02-15T07:18:01.513Z,99.99
2018-02-15T07:19:01.519Z,99.99
2018-02-15T07:20:01.509Z,99.99
2018-02-15T07:21:01.520Z,99.99
2018-02-15T07:22:01.511Z,99.99
2018-02-15T07:23:22.518Z,99.99
2018-02-15T07:24:01.597Z,99.99
2018-02-15T07:25:01.502Z,99.99
2018-02-15T07:26:01.501Z,99.99
2018-02-15T07:27:01.503Z,99.99
2018-02-15T07:28:01.614Z,99.99
2018-02-15T07:29:22.479Z,99.99
2018-02-15T07:30:01.502Z,99.99
2018-02-15T07:31:01.483Z,99.99
2018-02-15T07:32:01.471Z,99.99
2018-02-15T07:33:01.476Z,99.99
2018-02-15T07:34:01.486Z,99.99
2018-02-15T07:35:23.033Z,99.99
2018-02-15T07:36:01.462Z,99.99
2018-02-15T07:37:01.467Z,99.99
2018-02-15T07:38:01.467Z,99.99
2018-02-15T07:39:01.492Z,99.99
2018-02-15T07:40:01.469Z,99.99
2018-02-15T07:41:22.456Z,99.99
2018-02-15T07:42:01.446Z,99.99
2018-02-15T07:43:01.439Z,99.99
2018-02-15T07:44:01.493Z,99.99
2018-02-15T07:45:01.438Z,99.99
2018-02-15T07:46:01.430Z,99.99
2018-02-15T07:47:22.485Z,99.99
2018-02-15T07:48:01.456Z,99.99
2018-02-15T07:49:01.417Z,99.99
2018-02-15T07:50:01.607Z,99.99
2018-02-15T07:51:01.423Z,99.99
2018-02-15T07:52:01.428Z,99.99
2018-02-15T07:53:22.430Z,99.99
2018-02-15T07:54:01.401Z,99.99
2018-02-15T07:55:01.433Z,99.99
2018-02-15T07:56:01.427Z,99.99
2018-02-15T07:57:01.633Z,99.99
2018-02-15T07:58:01.400Z,99.99
2018-02-15T07:59:22.420Z,99.99
2018-02-15T08:00:01.419Z,99.99
2018-02-15T08:01:01.425Z,99.99
2018-02-15T08:02:01.541Z,99.99
2018-02-15T08:03:01.438Z,99.99
2018-02-15T08:04:01.521Z,99.99
2018-02-15T08:05:22.460Z,99.99
2018-02-15T08:06:01.479Z,99.99
2018-02-15T08:07:01.397Z,99.99
2018-02-15T08:08:01.376Z,99.99
2018-02-15T08:09:01.392Z,99.99
2018-02-15T08:10:01.401Z,99.99
2018-02-15T08:11:22.381Z,99.99
2018-02-15T08:12:01.361Z,99.99
2018-02-15T08:13:01.492Z,99.99
2018-02-15T08:14:01.357Z,99.99
2018-02-15T08:15:01.434Z,99.99
2018-02-15T08:16:01.407Z,99.99
2018-02-15T08:17:22.368Z,99.99
2018-02-15T08:18:01.885Z,99.99
2018-02-15T08:19:01.369Z,99.99
2018-02-15T08:20:01.355Z,99.99
2018-02-15T08:21:01.354Z,99.99
2018-02-15T08:22:01.336Z,99.99
2018-02-15T08:23:22.349Z,99.99
2018-02-15T08:24:01.608Z,99.99
2018-02-15T08:25:01.328Z,99.99
2018-02-15T08:26:01.368Z,99.99
2018-02-15T08:27:01.325Z,99.99
2018-02-15T08:28:01.321Z,99.99
2018-02-15T08:29:22.317Z,99.99
2018-02-15T08:30:01.379Z,99.99
2018-02-15T08:31:01.369Z,99.99
2018-02-15T08:32:01.411Z,99.99
2018-02-15T08:33:01.309Z,99.99
2018-02-15T08:34:01.307Z,99.99
2018-02-15T08:35:22.433Z,99.99
2018-02-15T08:36:01.294Z,99.99
2018-02-15T08:37:01.288Z,99.99
2018-02-15T08:38:01.312Z,99.99
2018-02-15T08:39:01.296Z,99.99
2018-02-15T08:40:01.295Z,99.99
2018-02-15T08:41:22.292Z,99.99
2018-02-15T08:42:01.299Z,99.99
2018-02-15T08:43:01.293Z,99.99
2018-02-15T08:44:01.391Z,99.99
2018-02-15T08:45:01.283Z,99.99
2018-02-15T08:46:01.366Z,99.99
2018-02-15T08:47:22.276Z,99.99
2018-02-15T08:48:01.309Z,99.99
2018-02-15T08:49:02.052Z,99.99
2018-02-15T08:50:01.254Z,99.99
2018-02-15T08:51:01.271Z,99.99
2018-02-15T08:52:01.268Z,99.99
2018-02-15T08:53:22.306Z,99.99
2018-02-15T08:54:01.299Z,99.99
2018-02-15T08:55:01.294Z,99.99
2018-02-15T08:56:01.310Z,99.99
2018-02-15T08:57:02.090Z,99.99
2018-02-15T08:58:01.246Z,99.99
2018-02-15T08:59:22.242Z,99.99
2018-02-15T09:00:01.243Z,99.99
2018-02-15T09:01:01.237Z,99.99
2018-02-15T09:02:01.332Z,99.99
2018-02-15T09:03:01.237Z,99.99
2018-02-15T09:04:01.227Z,99.99
2018-02-15T09:05:22.236Z,99.99
2018-02-15T09:06:01.233Z,99.99
2018-02-15T09:07:01.253Z,99.99
2018-02-15T09:08:01.252Z,99.99
2018-02-15T09:09:01.265Z,99.99
2018-02-15T09:10:01.215Z,99.99
2018-02-15T09:11:22.228Z,99.99
2018-02-15T09:12:01.193Z,99.99
2018-02-15T09:13:01.196Z,99.99
2018-02-15T09:14:01.218Z,99.99
2018-02-15T09:15:01.210Z,99.99
2018-02-15T09:16:01.201Z,99.99
2018-02-15T09:17:22.482Z,99.99
2018-02-15T09:18:01.286Z,99.99
2018-02-15T09:19:01.194Z,99.99
2018-02-15T09:20:01.199Z,99.99
2018-02-15T09:21:01.180Z,99.99
2018-02-15T09:22:01.172Z,99.99
2018-02-15T09:23:22.186Z,99.99
2018-02-15T09:24:01.192Z,99.99
2018-02-15T09:25:01.179Z,99.99
2018-02-15T09:26:01.177Z,99.99
2018-02-15T09:27:01.193Z,99.99
2018-02-15T09:28:02.046Z,99.99
2018-02-15T09:29:22.178Z,99.99
2018-02-15T09:30:01.175Z,99.99
2018-02-15T09:31:01.208Z,99.99
2018-02-15T09:32:01.177Z,99.99
2018-02-15T09:33:01.152Z,99.99
2018-02-15T09:34:01.151Z,99.99
2018-02-15T09:35:22.179Z,99.99
2018-02-15T09:36:01.173Z,99.99
2018-02-15T09:37:01.150Z,99.99
2018-02-15T09:38:01.162Z,99.99
2018-02-15T09:39:01.163Z,99.99
2018-02-15T09:40:01.139Z,99.99
2018-02-15T09:41:22.154Z,99.99
2018-02-15T09:42:01.136Z,99.99
2018-02-15T09:43:01.137Z,99.99
2018-02-15T09:44:01.199Z,99.99
2018-02-15T09:45:01.125Z,99.99
2018-02-15T09:46:01.133Z,99.99
2018-02-15T09:47:22.160Z,99.99
2018-02-15T09:48:01.135Z,99.99
2018-02-15T09:49:02.037Z,99.99
2018-02-15T09:50:01.104Z,99.99
2018-02-15T09:51:01.122Z,99.99
2018-02-15T09:52:01.126Z,99.99
2018-02-15T09:53:22.138Z,99.99
2018-02-15T09:54:01.112Z,99.99
2018-02-15T09:55:01.113Z,99.99
2018-02-15T09:56:01.126Z,99.99
2018-02-15T09:57:01.096Z,99.99
2018-02-15T09:58:01.090Z,99.99
2018-02-15T09:59:22.101Z,99.99
2018-02-15T10:00:01.118Z,99.99
2018-02-15T10:01:01.098Z,99.99
2018-02-15T10:02:01.108Z,99.99
2018-02-15T10:03:01.088Z,99.99
2018-02-15T10:04:01.097Z,99.99
2018-02-15T10:05:22.094Z,99.99
2018-02-15T10:06:01.152Z,99.99
2018-02-15T10:07:01.111Z,99.99
2018-02-15T10:08:01.064Z,99.99
2018-02-15T10:09:01.059Z,99.99
2018-02-15T10:10:01.094Z,99.99
2018-02-15T10:11:22.074Z,99.99
2018-02-15T10:12:01.088Z,99.99
2018-02-15T10:13:01.065Z,99.99
2018-02-15T10:14:01.068Z,99.99
2018-02-15T10:15:01.046Z,99.99
2018-02-15T10:16:01.049Z,99.99
2018-02-15T10:17:22.070Z,99.99
2018-02-15T10:18:01.172Z,99.99
2018-02-15T10:19:01.044Z,99.99
2018-02-15T10:20:02.442Z,99.99
2018-02-15T10:21:01.557Z,99.99
2018-02-15T10:22:01.077Z,99.99
2018-02-15T10:23:22.050Z,99.99
2018-02-15T10:24:01.044Z,99.99
2018-02-15T10:25:01.094Z,99.99
2018-02-15T10:26:01.036Z,99.99
2018-02-15T10:27:01.086Z,99.99
2018-02-15T10:28:01.035Z,99.99
2018-02-15T10:29:22.045Z,99.99
2018-02-15T10:30:01.069Z,99.99
2018-02-15T10:31:01.163Z,99.99
2018-02-15T10:32:01.024Z,99.99
2018-02-15T10:33:01.020Z,99.99
2018-02-15T10:34:01.050Z,99.99
2018-02-15T10:35:22.027Z,99.99
2018-02-15T10:36:01.022Z,99.99
2018-02-15T10:37:01.026Z,99.99
2018-02-15T10:38:00.998Z,99.99
2018-02-15T10:39:01.028Z,99.99
2018-02-15T10:40:02.070Z,99.99
2018-02-15T10:41:22.038Z,99.99
2018-02-15T10:42:01.025Z,99.99
2018-02-15T10:43:01.004Z,99.99
2018-02-15T10:44:01.051Z,99.99
2018-02-15T10:45:01.013Z,99.99
2018-02-15T10:46:00.996Z,99.99
2018-02-15T10:47:22.016Z,99.99
2018-02-15T10:48:00.984Z,99.99
2018-02-15T10:49:01.120Z,99.99
2018-02-15T10:50:01.025Z,99.99
2018-02-15T10:51:00.996Z,99.99
2018-02-15T10:52:00.997Z,99.99
2018-02-15T10:53:22.066Z,99.99
2018-02-15T10:54:00.985Z,99.99
2018-02-15T10:55:00.981Z,99.99
2018-02-15T10:56:01.067Z,99.99
2018-02-15T10:57:00.966Z,99.99
2018-02-15T10:58:00.974Z,99.99
2018-02-15T10:59:22.248Z,99.99
2018-02-15T11:00:02.136Z,99.99
2018-02-15T11:01:01.489Z,99.99
2018-02-15T11:02:01.565Z,99.99
2018-02-15T11:03:01.010Z,99.99
2018-02-15T11:04:01.001Z,99.99
2018-02-15T11:05:21.969Z,99.99
2018-02-15T11:06:00.979Z,99.99
2018-02-15T11:07:00.943Z,99.99
2018-02-15T11:08:00.969Z,99.99
2018-02-15T11:09:00.946Z,99.99
2018-02-15T11:10:01.013Z,99.99
2018-02-15T11:11:21.942Z,99.99
2018-02-15T11:12:00.964Z,99.99
2018-02-15T11:13:00.977Z,99.99
2018-02-15T11:14:01.078Z,99.99
2018-02-15T11:15:01.064Z,99.99
2018-02-15T11:16:00.943Z,99.99
2018-02-15T11:17:22.020Z,99.99
2018-02-15T11:18:00.990Z,99.99
2018-02-15T11:19:00.938Z,99.99
2018-02-15T11:20:00.998Z,99.99
2018-02-15T11:21:00.947Z,99.99
2018-02-15T11:22:00.955Z,99.99
2018-02-15T11:23:21.944Z,99.99
2018-02-15T11:24:00.938Z,99.99
2018-02-15T11:25:00.979Z,99.99
2018-02-15T11:26:00.923Z,99.99
2018-02-15T11:27:00.942Z,99.99
2018-02-15T11:28:00.993Z,99.99
2018-02-15T11:29:21.933Z,99.99
2018-02-15T11:30:00.913Z,99.99
2018-02-15T11:31:00.903Z,99.99
2018-02-15T11:32:00.906Z,99.99
2018-02-15T11:33:00.932Z,99.99
2018-02-15T11:34:00.905Z,99.99
2018-02-15T11:35:21.975Z,99.99
2018-02-15T11:36:00.915Z,99.99
2018-02-15T11:37:00.905Z,99.99
2018-02-15T11:38:00.916Z,99.99
2018-02-15T11:39:00.900Z,99.99
2018-02-15T11:40:00.891Z,99.99
2018-02-15T11:41:21.905Z,99.99
2018-02-15T11:42:00.889Z,99.99
2018-02-15T11:43:00.891Z,99.99
2018-02-15T11:44:00.892Z,99.99
2018-02-15T11:45:00.900Z,99.99
2018-02-15T11:46:01.521Z,99.99
2018-02-15T11:47:21.941Z,99.99
2018-02-15T11:48:00.896Z,99.99
2018-02-15T11:49:00.902Z,99.99
2018-02-15T11:50:00.882Z,99.99
2018-02-15T11:51:00.879Z,99.99
2018-02-15T11:52:00.888Z,99.99
2018-02-15T11:53:21.908Z,99.99
2018-02-15T11:54:00.870Z,99.99
2018-02-15T11:55:00.876Z,99.99
2018-02-15T11:56:00.904Z,99.99
2018-02-15T11:57:00.910Z,99.99
2018-02-15T11:58:00.885Z,99.99
2018-02-15T11:59:21.893Z,99.99
2018-02-15T12:00:00.898Z,99.99
2018-02-15T12:01:00.896Z,99.99
2018-02-15T12:02:00.874Z,99.99
2018-02-15T12:03:00.857Z,99.99
2018-02-15T12:04:00.871Z,99.99
2018-02-15T12:05:21.991Z,99.99
2018-02-15T12:06:00.857Z,99.99
2018-02-15T12:07:00.853Z,99.99
2018-02-15T12:08:00.858Z,99.99
2018-02-15T12:09:00.855Z,99.99
2018-02-15T12:10:00.912Z,99.99
2018-02-15T12:11:22.587Z,99.99
2018-02-15T12:12:00.847Z,99.99
2018-02-15T12:13:00.877Z,99.99
2018-02-15T12:14:00.842Z,99.99
2018-02-15T12:15:00.978Z,99.99
2018-02-15T12:16:00.848Z,99.99
2018-02-15T12:17:21.863Z,99.99
2018-02-15T12:18:00.853Z,99.99
2018-02-15T12:19:00.827Z,99.99
2018-02-15T12:20:00.842Z,99.99
2018-02-15T12:21:00.852Z,99.99
2018-02-15T12:22:00.846Z,99.99
2018-02-15T12:23:21.875Z,99.99
2018-02-15T12:24:00.820Z,99.99
2018-02-15T12:25:00.883Z,99.99
2018-02-15T12:26:00.829Z,99.99
2018-02-15T12:27:00.839Z,99.99
2018-02-15T12:28:00.816Z,99.99
2018-02-15T12:29:21.938Z,99.99
2018-02-15T12:30:00.805Z,99.99
2018-02-15T12:31:00.810Z,99.99
2018-02-15T12:32:00.814Z,99.99
2018-02-15T12:33:00.816Z,99.99
2018-02-15T12:34:00.834Z,99.99
2018-02-15T12:35:21.814Z,99.99
2018-02-15T12:36:00.924Z,99.99
2018-02-15T12:37:00.840Z,99.99
2018-02-15T12:38:00.810Z,99.99
2018-02-15T12:39:00.819Z,99.99
2018-02-15T12:40:00.834Z,99.99
2018-02-15T12:41:21.801Z,99.99
2018-02-15T12:42:00.799Z,99.99
2018-02-15T12:43:00.783Z,99.99
2018-02-15T12:44:00.799Z,99.99
2018-02-15T12:45:00.780Z,99.99
2018-02-15T12:46:01.575Z,99.99
2018-02-15T12:47:21.832Z,99.99
2018-02-15T12:48:00.808Z,99.99
2018-02-15T12:49:00.819Z,99.99
2018-02-15T12:50:00.783Z,99.99
2018-02-15T12:51:00.783Z,99.99
2018-02-15T12:52:00.819Z,99.99